Time;durP1;ratioP1;P1;durP2;ratioP2;P2;SDS_P1;SDS_P2;PMS_P1;PMS_P2;Temp;Humidity;BMP_temperature;BMP_pressure;BME280_temperature;BME280_humidity;BME280_pressure;Samples;Min_cycle;Max_cycle;Signal;HPM_P1;HPM_P2
2023/07/06 00:06:33;;;;;;;8.68;4.90;;;13.80;99.90;;;;;;19699155;29;20060;-80
2023/07/06 00:16:34;;;;;;;16.65;7.13;;;13.90;99.90;;;;;;19724351;29;20070;-80
2023/07/06 00:26:35;;;;;;;8.88;4.95;;;14.00;99.90;;;;;;19726876;29;20043;-79
2023/07/06 00:36:37;;;;;;;11.18;5.50;;;14.10;99.90;;;;;;19740231;29;20058;-80
2023/07/06 00:46:40;;;;;;;13.80;5.85;;;14.10;99.90;;;;;;19745880;29;20403;-81
2023/07/06 00:56:43;;;;;;;11.10;5.55;;;14.10;99.90;;;;;;19732819;29;20062;-80
2023/07/06 01:06:48;;;;;;;12.48;5.18;;;14.10;99.90;;;;;;19721861;29;20035;-81
2023/07/06 01:17:14;;;;;;;7.88;4.30;;;14.10;99.90;;;;;;19721530;29;20051;-80
2023/07/06 01:27:42;;;;;;;8.23;4.22;;;14.20;99.90;;;;;;19747650;29;20051;-81
2023/07/06 01:37:45;;;;;;;;;;;14.20;99.90;;;;;;19749016;29;20070;-79
2023/07/06 01:48:00;;;;;;;9.65;3.63;;;14.20;99.90;;;;;;19716566;29;19932;-81
2023/07/06 01:58:50;;;;;;;9.30;3.83;;;14.20;99.90;;;;;;19730766;29;20148;-80
2023/07/06 02:08:51;;;;;;;;;;;14.20;99.90;;;;;;19709003;29;20481;-80
2023/07/06 02:18:54;;;;;;;8.93;3.60;;;14.20;99.90;;;;;;19735736;29;20389;-80
2023/07/06 02:28:55;;;;;;;7.20;3.80;;;14.10;99.90;;;;;;19734950;29;20059;-80
2023/07/06 02:38:57;;;;;;;5.82;3.72;;;14.10;99.90;;;;;;19722703;29;20059;-80
2023/07/06 02:48:58;;;;;;;8.05;3.95;;;14.10;99.90;;;;;;19708963;29;20047;-80
2023/07/06 02:58:59;;;;;;;8.43;3.50;;;14.10;99.90;;;;;;19721503;29;20052;-80
2023/07/06 03:09:00;;;;;;;12.05;4.10;;;14.10;99.90;;;;;;19710863;29;20062;-80
2023/07/06 03:19:01;;;;;;;9.57;4.18;;;14.20;99.90;;;;;;19718695;29;20055;-80
2023/07/06 03:29:07;;;;;;;9.27;3.83;;;14.30;99.90;;;;;;19732043;29;20874;-80
2023/07/06 03:39:11;;;;;;;11.45;4.60;;;14.10;99.90;;;;;;19709988;29;20459;-80
2023/07/06 03:49:13;;;;;;;11.52;4.95;;;14.10;99.90;;;;;;19731568;29;20136;-80
2023/07/06 03:59:14;;;;;;;11.25;4.38;;;14.20;99.90;;;;;;19716278;29;20075;-80
2023/07/06 04:09:16;;;;;;;13.15;4.82;;;14.20;99.90;;;;;;19717381;29;20052;-80
2023/07/06 04:19:17;;;;;;;9.38;3.90;;;14.10;99.90;;;;;;19697876;29;20059;-80
2023/07/06 04:29:20;;;;;;;10.95;4.60;;;14.30;99.90;;;;;;19685812;29;20046;-79
2023/07/06 04:39:21;;;;;;;12.40;4.50;;;14.30;99.90;;;;;;19679293;29;20214;-80
2023/07/06 04:49:23;;;;;;;15.52;5.30;;;14.40;99.90;;;;;;19690191;29;20067;-80
2023/07/06 04:59:25;;;;;;;9.27;4.25;;;14.50;99.90;;;;;;19724520;29;20054;-80
2023/07/06 05:09:26;;;;;;;13.35;4.80;;;14.60;99.90;;;;;;19723334;29;21446;-80
2023/07/06 05:19:30;;;;;;;11.35;5.32;;;14.80;99.90;;;;;;19717221;29;20147;-80
2023/07/06 05:29:45;;;;;;;18.35;6.40;;;14.80;99.90;;;;;;19722513;29;20043;-78
2023/07/06 05:39:46;;;;;;;18.42;7.20;;;15.10;99.90;;;;;;19709483;29;20054;-81
2023/07/06 05:49:47;;;;;;;20.52;7.30;;;15.20;99.90;;;;;;19723266;29;20047;-80
2023/07/06 05:59:50;;;;;;;15.18;6.30;;;15.30;99.90;;;;;;19699067;29;20056;-80
2023/07/06 06:09:52;;;;;;;21.50;8.25;;;15.30;99.90;;;;;;19690426;29;20047;-80
2023/07/06 06:19:53;;;;;;;18.75;9.20;;;15.60;99.90;;;;;;19727347;29;20051;-80
2023/07/06 06:29:56;;;;;;;28.05;14.05;;;15.60;99.90;;;;;;19695068;29;20065;-79
2023/07/06 06:39:59;;;;;;;32.67;15.93;;;15.70;99.90;;;;;;19707346;29;20419;-80
2023/07/06 06:50:00;;;;;;;94.68;63.30;;;16.00;99.90;;;;;;19702886;29;20051;-80
2023/07/06 07:00:01;;;;;;;29.73;16.52;;;16.30;99.90;;;;;;19733888;29;20055;-81
2023/07/06 07:10:02;;;;;;;28.45;14.15;;;16.50;99.90;;;;;;19705247;29;20047;-80
2023/07/06 07:20:05;;;;;;;26.58;13.15;;;16.80;91.80;;;;;;19732349;29;20055;-81
2023/07/06 07:30:08;;;;;;;40.15;24.38;;;17.10;48.30;;;;;;19719717;29;20055;-80
2023/07/06 07:40:15;;;;;;;19.05;10.15;;;17.20;53.90;;;;;;19710738;29;20448;-80
2023/07/06 07:50:24;;;;;;;19.88;10.15;;;17.50;16.10;;;;;;19680382;29;20066;-80
2023/07/06 08:00:26;;;;;;;21.40;10.20;;;17.70;1.00;;;;;;19697179;29;20047;-81
2023/07/06 08:10:28;;;;;;;17.50;10.40;;;17.70;6.60;;;;;;19696616;29;20053;-80
2023/07/06 08:20:54;;;;;;;15.93;9.95;;;17.70;5.40;;;;;;19747226;29;20099;-81
2023/07/06 08:30:55;;;;;;;14.75;8.93;;;18.20;1.00;;;;;;19688686;29;20533;-80
2023/07/06 08:41:29;;;;;;;12.48;8.18;;;18.40;1.00;;;;;;19744587;29;20077;-80
2023/07/06 08:51:52;;;;;;;14.45;8.25;;;18.80;1.00;;;;;;19833467;29;20107;-80
2023/07/06 09:02:16;;;;;;;20.25;8.18;;;18.60;1.00;;;;;;19855241;29;20072;-80
2023/07/06 09:12:29;;;;;;;10.25;6.28;;;18.60;1.00;;;;;;19850698;29;20043;-80
2023/07/06 09:22:50;;;;;;;9.68;4.85;;;19.10;1.00;;;;;;19852415;29;20050;-79
2023/07/06 09:33:26;;;;;;;8.75;3.47;;;19.20;1.00;;;;;;19857876;29;20131;-81
2023/07/06 09:43:51;;;;;;;6.82;3.90;;;18.90;1.00;;;;;;19791092;29;20079;-81
2023/07/06 09:54:17;;;;;;;8.68;3.63;;;18.70;1.00;;;;;;19766648;29;20051;-80
2023/07/06 10:05:02;;;;;;;10.63;3.85;;;18.70;1.00;;;;;;19769642;29;20531;-82
2023/07/06 10:15:45;;;;;;;6.30;2.97;;;18.90;1.00;;;;;;19752027;29;20070;-77
2023/07/06 10:26:29;;;;;;;6.03;2.28;;;18.60;1.00;;;;;;19764166;29;20171;-78
2023/07/06 10:36:51;;;;;;;4.18;1.73;;;18.30;1.00;;;;;;19766346;29;20048;-78
2023/07/06 10:47:34;;;;;;;4.47;2.13;;;18.30;1.00;;;;;;19786726;29;20108;-81
2023/07/06 10:58:04;;;;;;;6.60;1.85;;;18.50;1.00;;;;;;19784966;29;20039;-83
2023/07/06 11:09:03;;;;;;;6.65;1.70;;;19.10;1.00;;;;;;19772382;29;20487;-80
2023/07/06 11:19:31;;;;;;;4.60;1.47;;;19.70;1.00;;;;;;19792294;29;20072;-80
2023/07/06 11:29:54;;;;;;;;;;;20.40;1.00;;;;;;19825046;29;20031;-81
2023/07/06 12:35:12;;;;;;;3.13;0.82;;;22.20;1.00;;;;;;19851279;29;20184;-90
2023/07/06 12:45:33;;;;;;;2.00;0.70;;;22.40;1.00;;;;;;19836932;29;20104;-90
2023/07/06 12:56:00;;;;;;;2.50;1.00;;;22.50;1.00;;;;;;19808409;29;20055;-90
2023/07/06 13:06:26;;;;;;;3.08;0.80;;;22.70;1.00;;;;;;19830703;29;20081;-91
2023/07/06 13:16:54;;;;;;;2.28;0.88;;;22.80;1.00;;;;;;19798855;29;20061;-90
2023/07/06 13:27:20;;;;;;;1.95;0.73;;;22.80;1.00;;;;;;19815889;29;20105;-89
2023/07/06 13:37:43;;;;;;;2.42;0.98;;;23.00;1.00;;;;;;19792269;29;20051;-93
2023/07/06 14:56:31;;;;;;;3.40;1.08;;;22.70;1.00;;;;;;20414778;24;20097;-86
2023/07/06 15:06:34;;;;;;;4.18;1.00;;;22.60;1.00;;;;;;19836655;29;20443;-89
2023/07/06 17:10:35;;;;;;;4.57;1.20;;;21.90;1.00;;;;;;19910079;29;20046;-94
2023/07/06 17:21:01;;;;;;;5.18;1.02;;;21.70;1.00;;;;;;19610262;30;20056;-94
2023/07/06 17:55:21;;;;;;;3.70;0.98;;;21.30;1.00;;;;;;19579749;30;20064;-93
2023/07/06 18:07:12;;;;;;;3.13;0.90;;;21.00;1.00;;;;;;19603670;29;20047;-93
2023/07/06 18:18:17;;;;;;;;;;;;;;;;;;;;;
2023/07/06 18:29:36;;;;;;;3.05;1.08;;;20.30;1.00;;;;;;19829385;29;20047;-92
2023/07/06 18:40:02;;;;;;;3.93;1.57;;;20.20;1.00;;;;;;19791251;29;20043;-91
2023/07/06 18:50:52;;;;;;;2.90;1.00;;;19.90;1.00;;;;;;19870858;29;20268;-94
2023/07/06 19:01:56;;;;;;;4.05;1.00;;;19.80;1.00;;;;;;19831148;29;20047;-95
2023/07/06 19:58:05;;;;;;;4.35;1.30;;;18.70;1.00;;;;;;19824841;29;20542;-95
2023/07/06 20:09:21;;;;;;;3.45;1.75;;;18.40;1.00;;;;;;19835862;29;20046;-95
2023/07/06 20:20:01;;;;;;;3.33;1.38;;;18.00;1.00;;;;;;19899397;29;20051;-94
2023/07/06 20:30:30;;;;;;;7.38;1.73;;;17.70;1.00;;;;;;19863896;29;20045;-93
2023/07/06 20:52:36;;;;;;;6.97;1.85;;;17.20;1.00;;;;;;19871574;29;20479;-94
2023/07/06 21:03:25;;;;;;;3.85;1.70;;;17.00;1.00;;;;;;19839214;29;20046;-96
2023/07/06 21:14:33;;;;;;;3.42;1.92;;;16.70;1.00;;;;;;19892855;29;20601;-94
2023/07/06 21:25:00;;;;;;;3.67;2.00;;;16.50;1.00;;;;;;19770139;29;20046;-94
2023/07/06 21:36:07;;;;;;;3.70;2.10;;;16.40;1.00;;;;;;19837484;29;20498;-93
2023/07/06 21:46:47;;;;;;;3.05;1.83;;;16.30;1.00;;;;;;19842210;29;20413;-96
2023/07/06 22:08:51;;;;;;;4.85;2.47;;;15.90;1.00;;;;;;19838925;29;20058;-94
2023/07/06 22:19:18;;;;;;;4.85;2.63;;;15.80;1.00;;;;;;19900639;29;20051;-94
2023/07/06 22:29:42;;;;;;;7.40;2.90;;;15.70;1.00;;;;;;19846103;29;20053;-94
2023/07/06 23:26:41;;;;;;;5.70;2.38;;;15.30;1.00;;;;;;19756960;29;20055;-95
2023/07/06 23:48:52;;;;;;;4.93;3.10;;;15.10;1.00;;;;;;19705160;29;20082;-94
2023/07/06 23:59:24;;;;;;;5.32;3.00;;;14.90;1.00;;;;;;19750742;29;20074;-93
